createdAt,value
2018-07-08T00:00:53.822Z,14.80
2018-07-08T00:03:21.154Z,14.74
2018-07-08T00:05:48.430Z,14.79
2018-07-08T00:08:15.710Z,14.82
2018-07-08T00:10:49.622Z,14.84
2018-07-08T00:13:16.958Z,14.86
2018-07-08T00:15:45.808Z,14.91
2018-07-08T00:21:03.620Z,14.71
2018-07-08T00:23:30.862Z,14.69
2018-07-08T00:25:58.216Z,14.72
2018-07-08T00:28:25.470Z,14.72
2018-07-08T00:30:52.719Z,14.67
2018-07-08T00:33:20.070Z,14.67
2018-07-08T00:35:47.327Z,14.60
2018-07-08T00:38:14.633Z,14.53
2018-07-08T00:40:41.940Z,14.52
2018-07-08T00:43:09.268Z,14.37
2018-07-08T00:45:36.541Z,14.42
2018-07-08T00:48:03.872Z,14.44
2018-07-08T00:50:31.158Z,14.43
2018-07-08T00:52:58.487Z,14.43
2018-07-08T00:55:25.786Z,14.43
2018-07-08T00:57:53.025Z,14.45
2018-07-08T01:00:30.616Z,14.46
2018-07-08T01:02:58.076Z,14.48
2018-07-08T01:05:25.331Z,14.44
2018-07-08T01:07:52.610Z,14.42
2018-07-08T01:10:20.122Z,14.44
2018-07-08T01:12:47.560Z,14.35
2018-07-08T01:15:14.991Z,14.29
2018-07-08T01:17:42.267Z,14.26
2018-07-08T01:20:09.546Z,14.13
2018-07-08T01:22:36.796Z,14.07
2018-07-08T01:25:11.555Z,13.93
2018-07-08T01:27:39.143Z,13.78
2018-07-08T01:30:06.605Z,13.81
2018-07-08T01:32:34.738Z,13.78
2018-07-08T01:35:02.107Z,13.84
2018-07-08T01:37:29.681Z,13.92
2018-07-08T01:39:56.934Z,13.99
2018-07-08T01:42:24.243Z,14.06
2018-07-08T01:44:51.503Z,14.07
2018-07-08T01:47:18.786Z,14.09
2018-07-08T01:49:46.048Z,14.10
2018-07-08T01:52:13.305Z,14.08
2018-07-08T01:54:40.997Z,14.08
2018-07-08T01:57:08.511Z,14.10
2018-07-08T01:59:35.823Z,14.07
2018-07-08T02:02:03.661Z,14.04
2018-07-08T02:04:30.900Z,14.02
2018-07-08T02:06:58.229Z,14.02
2018-07-08T02:09:25.702Z,14.02
2018-07-08T02:11:52.920Z,13.98
2018-07-08T02:14:21.490Z,13.91
2018-07-08T02:16:48.787Z,13.89
2018-07-08T02:19:16.136Z,13.84
2018-07-08T02:21:43.394Z,13.77
2018-07-08T02:24:10.698Z,13.74
2018-07-08T02:26:37.965Z,13.62
2018-07-08T02:29:05.208Z,13.57
2018-07-08T02:31:32.456Z,13.57
2018-07-08T02:33:59.785Z,13.56
2018-07-08T02:36:27.232Z,13.56
2018-07-08T02:38:54.536Z,13.56
2018-07-08T02:41:21.814Z,13.55
2018-07-08T02:43:49.110Z,13.53
2018-07-08T02:46:16.430Z,13.53
2018-07-08T02:48:44.397Z,13.55
2018-07-08T02:51:11.686Z,13.54
2018-07-08T02:53:39.076Z,13.52
2018-07-08T02:56:06.538Z,13.45
2018-07-08T02:58:33.872Z,13.35
2018-07-08T03:01:01.142Z,13.22
2018-07-08T03:03:28.471Z,13.11
2018-07-08T03:05:55.742Z,13.06
2018-07-08T03:08:23.150Z,13.08
2018-07-08T03:10:50.471Z,13.06
2018-07-08T03:13:17.873Z,13.05
2018-07-08T03:15:45.161Z,13.03
2018-07-08T03:18:12.532Z,13.04
2018-07-08T03:20:40.754Z,13.06
2018-07-08T03:23:09.476Z,13.06
2018-07-08T03:25:37.179Z,13.06
2018-07-08T03:28:04.725Z,13.06
2018-07-08T03:30:32.030Z,13.08
2018-07-08T03:32:59.410Z,13.09
2018-07-08T03:35:26.731Z,13.09
2018-07-08T03:37:54.077Z,13.12
2018-07-08T03:40:21.451Z,13.13
2018-07-08T03:42:48.774Z,13.14
2018-07-08T03:45:16.135Z,13.15
2018-07-08T03:47:43.471Z,13.14
2018-07-08T03:50:10.889Z,13.15
2018-07-08T03:52:38.980Z,13.17
2018-07-08T03:55:06.394Z,13.24
2018-07-08T03:57:33.835Z,13.27
2018-07-08T04:00:01.204Z,13.30
2018-07-08T04:02:29.063Z,13.36
2018-07-08T04:04:56.395Z,13.40
2018-07-08T04:07:23.838Z,13.41
2018-07-08T04:09:51.256Z,13.48
2018-07-08T04:12:18.601Z,13.56
2018-07-08T04:14:46.483Z,13.60
2018-07-08T04:17:13.801Z,13.66
2018-07-08T04:19:41.732Z,13.75
2018-07-08T04:22:09.000Z,13.90
2018-07-08T04:24:36.440Z,14.04
2018-07-08T04:27:03.836Z,14.19
2018-07-08T04:29:31.184Z,14.31
2018-07-08T04:31:58.523Z,14.42
2018-07-08T04:34:26.065Z,14.55
2018-07-08T04:36:53.399Z,14.62
2018-07-08T04:39:20.786Z,14.76
2018-07-08T04:41:48.203Z,14.92
2018-07-08T04:44:15.515Z,15.09
2018-07-08T04:46:42.885Z,15.27
2018-07-08T04:49:10.320Z,15.35
2018-07-08T04:51:37.621Z,15.48
2018-07-08T04:54:05.020Z,15.63
2018-07-08T04:56:32.360Z,15.77
2018-07-08T04:58:59.734Z,15.75
2018-07-08T05:01:27.676Z,16.01
2018-07-08T05:03:55.111Z,16.01
2018-07-08T05:06:22.454Z,16.05
2018-07-08T05:08:49.877Z,16.11
2018-07-08T05:11:17.196Z,16.27
2018-07-08T05:13:44.498Z,16.21
2018-07-08T05:16:11.880Z,16.34
2018-07-08T05:18:39.672Z,16.47
2018-07-08T05:21:07.480Z,16.63
2018-07-08T05:23:34.792Z,16.71
2018-07-08T05:26:02.125Z,16.90
2018-07-08T05:28:29.462Z,17.16
2018-07-08T05:30:56.823Z,17.30
2018-07-08T05:33:24.151Z,17.44
2018-07-08T05:35:51.519Z,17.36
2018-07-08T05:38:18.807Z,17.17
2018-07-08T05:40:46.291Z,16.99
2018-07-08T05:43:13.494Z,17.30
2018-07-08T05:45:40.869Z,17.55
2018-07-08T05:48:08.192Z,17.54
2018-07-08T05:50:35.589Z,17.82
2018-07-08T05:53:02.963Z,17.88
2018-07-08T05:55:30.322Z,18.07
2018-07-08T05:57:57.660Z,18.37
2018-07-08T06:00:25.088Z,18.67
2018-07-08T06:02:52.425Z,18.15
2018-07-08T06:05:19.750Z,17.90
2018-07-08T06:07:47.078Z,17.99
2018-07-08T06:10:14.492Z,18.35
2018-07-08T06:12:41.869Z,18.33
2018-07-08T06:15:09.267Z,18.52
2018-07-08T06:17:36.865Z,18.61
2018-07-08T06:20:06.397Z,18.63
2018-07-08T06:22:33.727Z,19.20
2018-07-08T06:25:01.065Z,19.62
2018-07-08T06:27:28.440Z,19.63
2018-07-08T06:29:55.788Z,19.71
2018-07-08T06:32:23.099Z,19.78
2018-07-08T06:34:51.151Z,19.63
2018-07-08T06:37:19.054Z,19.19
2018-07-08T06:39:46.459Z,19.49
2018-07-08T06:42:13.999Z,19.36
2018-07-08T06:44:42.192Z,19.06
2018-07-08T06:47:09.529Z,19.39
2018-07-08T06:49:36.912Z,19.26
2018-07-08T06:52:04.345Z,19.67
2018-07-08T06:54:31.736Z,19.74
2018-07-08T06:56:59.113Z,19.87
2018-07-08T06:59:26.591Z,20.07
2018-07-08T07:01:54.251Z,20.14
2018-07-08T07:04:22.112Z,19.94
2018-07-08T07:06:49.591Z,20.07
2018-07-08T07:09:16.911Z,20.34
2018-07-08T07:11:44.318Z,20.48
2018-07-08T07:14:11.673Z,20.98
2018-07-08T07:16:39.010Z,21.06
2018-07-08T07:19:06.742Z,21.47
2018-07-08T07:21:34.213Z,21.81
2018-07-08T07:24:01.562Z,22.37
2018-07-08T07:26:28.891Z,22.18
2018-07-08T07:28:56.218Z,22.02
2018-07-08T07:31:23.626Z,22.32
2018-07-08T07:33:51.155Z,22.80
2018-07-08T07:36:18.524Z,22.63
2018-07-08T07:38:45.841Z,22.32
2018-07-08T07:41:13.223Z,22.38
2018-07-08T07:43:40.508Z,22.48
2018-07-08T07:46:07.829Z,22.53
2018-07-08T07:48:35.355Z,22.62
2018-07-08T07:51:02.719Z,23.03
2018-07-08T07:53:30.209Z,22.85
2018-07-08T07:55:57.573Z,22.39
2018-07-08T07:58:25.497Z,22.80
2018-07-08T08:00:52.853Z,22.88
2018-07-08T08:03:20.179Z,23.49
2018-07-08T08:05:47.526Z,23.92
2018-07-08T08:08:18.105Z,24.19
2018-07-08T08:10:45.678Z,23.76
2018-07-08T08:13:13.755Z,24.24
2018-07-08T08:15:41.353Z,24.57
2018-07-08T08:18:08.718Z,24.95
2018-07-08T08:20:36.009Z,25.13
2018-07-08T08:23:03.573Z,24.81
2018-07-08T08:25:30.874Z,24.48
2018-07-08T08:27:58.242Z,24.89
2018-07-08T08:30:25.555Z,24.23
2018-07-08T08:32:53.176Z,25.00
2018-07-08T08:35:20.547Z,25.50
2018-07-08T08:37:49.858Z,25.81
2018-07-08T08:40:18.108Z,25.48
2018-07-08T08:42:45.495Z,25.49
2018-07-08T08:45:14.089Z,25.95
2018-07-08T08:47:41.654Z,25.96
2018-07-08T08:50:09.709Z,25.65
2018-07-08T08:52:37.035Z,25.79
2018-07-08T08:55:04.932Z,26.09
2018-07-08T08:57:32.959Z,25.91
2018-07-08T09:00:00.311Z,26.01
2018-07-08T09:02:27.661Z,25.69
2018-07-08T09:04:54.997Z,26.28
2018-07-08T09:07:22.602Z,26.53
2018-07-08T09:09:49.993Z,26.68
2018-07-08T09:12:17.327Z,26.74
2018-07-08T09:14:44.679Z,26.46
2018-07-08T09:17:12.244Z,26.50
2018-07-08T09:19:39.626Z,26.80
2018-07-08T09:22:07.796Z,26.94
2018-07-08T09:24:35.143Z,27.23
2018-07-08T09:27:02.501Z,27.31
2018-07-08T09:29:29.869Z,26.61
2018-07-08T09:31:57.423Z,26.60
2018-07-08T09:34:24.818Z,27.75
2018-07-08T09:36:52.169Z,28.02
2018-07-08T09:39:19.603Z,27.80
2018-07-08T09:41:47.306Z,27.55
2018-07-08T09:44:15.492Z,27.08
2018-07-08T09:46:44.091Z,27.67
2018-07-08T09:49:11.762Z,28.33
2018-07-08T09:51:39.218Z,28.81
2018-07-08T09:54:06.594Z,28.99
2018-07-08T09:56:34.406Z,28.64
2018-07-08T09:59:01.778Z,28.37
2018-07-08T10:01:30.434Z,28.75
2018-07-08T10:03:57.762Z,29.32
2018-07-08T10:06:25.119Z,28.95
2018-07-08T10:08:52.457Z,28.44
2018-07-08T10:11:19.812Z,28.56
2018-07-08T10:13:47.195Z,28.95
2018-07-08T10:16:14.614Z,29.11
2018-07-08T10:18:41.995Z,28.57
2018-07-08T10:21:09.409Z,28.83
2018-07-08T10:23:36.778Z,28.55
2018-07-08T10:26:04.334Z,28.97
2018-07-08T10:28:31.812Z,28.72
2018-07-08T10:30:59.196Z,29.24
2018-07-08T10:33:33.246Z,29.43
2018-07-08T10:36:01.830Z,28.81
2018-07-08T10:38:29.149Z,28.67
2018-07-08T10:40:56.522Z,28.66
2018-07-08T10:43:24.108Z,27.57
2018-07-08T10:45:51.426Z,26.91
2018-07-08T10:48:19.453Z,27.51
2018-07-08T10:50:46.963Z,27.50
2018-07-08T10:53:14.356Z,27.98
2018-07-08T10:55:41.722Z,27.85
2018-07-08T10:58:09.679Z,28.20
2018-07-08T11:00:37.120Z,28.45
2018-07-08T11:03:05.656Z,27.01
2018-07-08T11:05:33.080Z,26.71
2018-07-08T11:08:00.556Z,26.86
2018-07-08T11:10:27.972Z,26.98
2018-07-08T11:12:55.829Z,27.19
2018-07-08T11:15:23.461Z,26.92
2018-07-08T11:17:50.838Z,27.19
2018-07-08T11:20:18.763Z,27.69
2018-07-08T11:22:46.470Z,28.24
2018-07-08T11:25:14.896Z,28.97
2018-07-08T11:27:42.238Z,28.68
2018-07-08T11:30:09.566Z,28.20
2018-07-08T11:32:37.823Z,27.04
2018-07-08T11:35:07.746Z,26.95
2018-07-08T11:37:35.095Z,27.10
2018-07-08T11:40:02.503Z,27.32
2018-07-08T11:42:30.003Z,27.62
2018-07-08T11:44:57.775Z,27.54
2018-07-08T11:47:25.245Z,27.78
2018-07-08T11:49:52.585Z,27.80
2018-07-08T11:52:20.147Z,28.27
2018-07-08T11:54:47.634Z,28.78
2018-07-08T11:57:14.983Z,29.33
2018-07-08T11:59:42.330Z,28.85
2018-07-08T12:02:09.710Z,28.13
2018-07-08T12:04:37.290Z,28.14
2018-07-08T12:07:04.754Z,27.61
2018-07-08T12:09:32.172Z,27.62
2018-07-08T12:11:59.720Z,27.95
2018-07-08T12:14:27.540Z,29.11
2018-07-08T12:16:55.279Z,29.45
2018-07-08T12:19:22.625Z,28.71
2018-07-08T12:21:50.003Z,28.56
2018-07-08T12:24:17.388Z,28.95
2018-07-08T12:26:44.812Z,29.53
2018-07-08T12:29:12.304Z,29.61
2018-07-08T12:31:40.389Z,29.22
2018-07-08T12:34:08.651Z,29.77
2018-07-08T12:36:36.922Z,30.22
2018-07-08T12:39:06.692Z,30.91
2018-07-08T12:41:34.094Z,31.07
2018-07-08T12:44:01.540Z,30.11
2018-07-08T12:46:28.885Z,29.17
2018-07-08T12:48:56.862Z,29.33
2018-07-08T12:51:24.839Z,29.56
2018-07-08T12:53:52.269Z,28.56
2018-07-08T12:56:19.645Z,28.17
2018-07-08T12:58:47.045Z,27.92
2018-07-08T13:01:14.602Z,28.59
2018-07-08T13:03:42.445Z,28.54
2018-07-08T13:06:09.794Z,29.13
2018-07-08T13:08:37.181Z,29.25
2018-07-08T13:11:04.601Z,29.28
2018-07-08T13:13:32.205Z,28.83
2018-07-08T13:15:59.515Z,27.85
2018-07-08T13:18:26.881Z,27.29
2018-07-08T13:20:54.326Z,27.16
2018-07-08T13:23:21.658Z,27.09
2018-07-08T13:25:49.003Z,27.25
2018-07-08T13:28:16.378Z,27.18
2018-07-08T13:30:43.816Z,27.19
2018-07-08T13:33:11.127Z,27.40
2018-07-08T13:35:38.472Z,27.71
2018-07-08T13:38:05.836Z,27.72
2018-07-08T13:40:33.216Z,28.17
2018-07-08T13:43:00.541Z,28.12
2018-07-08T13:45:27.981Z,28.16
2018-07-08T13:47:55.330Z,28.24
2018-07-08T13:50:22.726Z,28.08
2018-07-08T13:52:50.245Z,28.05
2018-07-08T13:55:17.655Z,28.07
2018-07-08T13:57:45.600Z,28.40
2018-07-08T14:00:13.144Z,28.35
2018-07-08T14:02:40.469Z,28.25
2018-07-08T14:05:07.886Z,28.83
2018-07-08T14:07:35.271Z,28.95
2018-07-08T14:10:02.759Z,28.54
2018-07-08T14:12:30.120Z,28.30
2018-07-08T14:14:58.069Z,28.73
2018-07-08T14:17:25.471Z,29.18
2018-07-08T14:19:52.869Z,28.86
2018-07-08T14:22:20.223Z,28.72
2018-07-08T14:24:47.579Z,29.28
2018-07-08T14:27:14.967Z,28.95
2018-07-08T14:29:42.338Z,28.73
2018-07-08T14:32:09.762Z,28.75
2018-07-08T14:34:37.117Z,28.09
2018-07-08T14:37:05.066Z,27.93
2018-07-08T14:39:32.398Z,27.83
2018-07-08T14:41:59.762Z,27.38
2018-07-08T14:44:27.092Z,27.32
2018-07-08T14:46:54.445Z,27.16
2018-07-08T14:49:21.747Z,27.29
2018-07-08T14:51:49.151Z,26.95
2018-07-08T14:54:16.563Z,26.80
2018-07-08T14:56:43.947Z,27.17
2018-07-08T14:59:12.261Z,27.30
2018-07-08T15:01:39.636Z,27.67
2018-07-08T15:04:06.974Z,27.18
2018-07-08T15:06:34.351Z,27.05
2018-07-08T15:09:04.736Z,27.12
2018-07-08T15:11:32.202Z,27.12
2018-07-08T15:14:00.119Z,27.03
2018-07-08T15:16:27.595Z,27.17
2018-07-08T15:18:54.928Z,27.03
2018-07-08T15:21:22.369Z,26.87
2018-07-08T15:23:49.737Z,26.56
2018-07-08T15:26:17.144Z,26.60
2018-07-08T15:28:44.698Z,26.78
2018-07-08T15:31:12.242Z,26.78
2018-07-08T15:33:39.616Z,26.80
2018-07-08T15:36:07.016Z,26.56
2018-07-08T15:38:34.361Z,26.82
2018-07-08T15:41:01.834Z,26.22
2018-07-08T15:43:29.178Z,26.25
2018-07-08T15:45:57.015Z,26.24
2018-07-08T15:48:24.336Z,26.01
2018-07-08T15:50:52.477Z,26.13
2018-07-08T15:53:19.885Z,26.15
2018-07-08T15:55:48.193Z,26.37
2018-07-08T15:58:15.542Z,26.56
2018-07-08T16:00:42.914Z,26.65
2018-07-08T16:03:10.316Z,26.54
2018-07-08T16:05:37.667Z,26.49
2018-07-08T16:08:05.539Z,26.43
2018-07-08T16:10:32.908Z,26.45
2018-07-08T16:13:00.367Z,26.32
2018-07-08T16:15:27.772Z,26.13
2018-07-08T16:17:55.185Z,26.25
2018-07-08T16:20:22.613Z,26.32
2018-07-08T16:22:50.007Z,26.33
2018-07-08T16:25:17.346Z,26.39
2018-07-08T16:27:44.730Z,26.08
2018-07-08T16:30:12.106Z,26.15
2018-07-08T16:32:40.084Z,26.16
2018-07-08T16:35:07.442Z,25.95
2018-07-08T16:37:34.834Z,25.60
2018-07-08T16:40:02.712Z,25.51
2018-07-08T16:42:30.067Z,25.32
2018-07-08T16:44:57.390Z,25.48
2018-07-08T16:47:24.770Z,25.20
2018-07-08T16:49:52.088Z,25.01
2018-07-08T16:52:19.468Z,25.08
2018-07-08T16:54:47.609Z,25.17
2018-07-08T16:57:14.927Z,25.40
2018-07-08T16:59:42.264Z,25.57
2018-07-08T17:02:09.721Z,25.39
2018-07-08T17:04:37.572Z,25.45
2018-07-08T17:07:05.619Z,25.39
2018-07-08T17:09:32.996Z,25.43
2018-07-08T17:12:00.388Z,25.42
2018-07-08T17:14:27.714Z,25.54
2018-07-08T17:16:55.177Z,25.42
2018-07-08T17:19:23.147Z,25.43
2018-07-08T17:21:51.084Z,25.29
2018-07-08T17:24:18.591Z,25.38
2018-07-08T17:26:46.020Z,25.35
2018-07-08T17:29:13.534Z,25.33
2018-07-08T17:31:41.590Z,25.34
2018-07-08T17:34:08.955Z,25.27
2018-07-08T17:36:36.402Z,25.21
2018-07-08T17:39:04.593Z,25.25
2018-07-08T17:41:31.926Z,25.25
2018-07-08T17:44:01.115Z,25.25
2018-07-08T17:46:28.597Z,25.30
2018-07-08T17:48:57.323Z,25.21
2018-07-08T17:51:25.027Z,24.87
2018-07-08T17:53:52.415Z,24.75
2018-07-08T17:56:19.750Z,24.67
2018-07-08T17:58:47.737Z,24.61
2018-07-08T18:01:17.195Z,24.63
2018-07-08T18:03:44.942Z,24.60
2018-07-08T18:06:12.440Z,24.61
2018-07-08T18:08:40.022Z,24.56
2018-07-08T18:11:08.641Z,24.49
2018-07-08T18:13:37.058Z,24.29
2018-07-08T18:16:05.161Z,24.22
2018-07-08T18:18:33.948Z,24.17
2018-07-08T18:21:02.603Z,24.23
2018-07-08T18:23:30.983Z,24.25
2018-07-08T18:26:00.052Z,24.26
2018-07-08T18:28:27.715Z,24.23
2018-07-08T18:30:56.575Z,24.17
2018-07-08T18:33:25.135Z,24.06
2018-07-08T18:35:55.701Z,24.03
2018-07-08T18:38:26.420Z,23.95
2018-07-08T18:41:01.177Z,23.93
2018-07-08T18:43:32.099Z,23.94
2018-07-08T18:46:01.517Z,23.85
2018-07-08T18:48:31.729Z,23.76
2018-07-08T18:51:02.052Z,23.68
2018-07-08T18:53:34.154Z,23.53
2018-07-08T18:56:03.809Z,23.33
2018-07-08T18:58:48.473Z,22.96
2018-07-08T19:01:21.070Z,22.60
2018-07-08T19:03:55.980Z,22.41
2018-07-08T19:06:27.306Z,22.24
2018-07-08T19:08:58.640Z,22.16
2018-07-08T19:11:30.073Z,22.07
2018-07-08T19:13:59.624Z,21.85
2018-07-08T19:16:32.024Z,21.72
2018-07-08T19:19:01.066Z,21.51
2018-07-08T19:21:29.955Z,21.51
2018-07-08T19:23:59.290Z,21.40
2018-07-08T19:26:30.532Z,21.36
2018-07-08T19:29:01.652Z,21.24
2018-07-08T19:31:29.895Z,21.18
2018-07-08T19:33:58.911Z,21.08
2018-07-08T19:36:27.199Z,21.00
2018-07-08T19:38:57.141Z,20.99
2018-07-08T19:41:25.289Z,21.03
2018-07-08T19:43:52.962Z,21.02
2018-07-08T19:46:21.754Z,21.02
2018-07-08T19:48:50.080Z,20.97
2018-07-08T19:51:17.456Z,20.92
2018-07-08T19:53:46.677Z,20.92
2018-07-08T19:56:14.052Z,20.97
2018-07-08T19:58:42.069Z,20.96
2018-07-08T20:01:09.665Z,20.88
2018-07-08T20:03:37.238Z,20.82
2018-07-08T20:06:04.732Z,20.76
2018-07-08T20:08:32.243Z,20.73
2018-07-08T20:11:00.888Z,20.65
2018-07-08T20:13:28.386Z,20.74
2018-07-08T20:15:55.779Z,20.82
2018-07-08T20:18:23.314Z,20.88
2018-07-08T20:20:50.691Z,20.90
2018-07-08T20:23:18.006Z,20.83
2018-07-08T20:25:45.273Z,20.64
2018-07-08T20:28:12.526Z,20.58
2018-07-08T20:30:39.933Z,20.48
2018-07-08T20:33:07.210Z,20.47
2018-07-08T20:35:34.743Z,20.46
2018-07-08T20:38:02.076Z,20.46
2018-07-08T20:40:29.629Z,20.52
2018-07-08T20:42:56.881Z,20.61
2018-07-08T20:45:24.185Z,20.68
2018-07-08T20:47:51.508Z,20.75
2018-07-08T20:50:18.971Z,20.77
2018-07-08T20:52:46.270Z,20.79
2018-07-08T20:55:13.594Z,20.73
2018-07-08T20:57:40.894Z,20.72
2018-07-08T21:00:08.198Z,20.67
2018-07-08T21:02:35.490Z,20.67
2018-07-08T21:05:02.844Z,20.60
2018-07-08T21:07:30.113Z,20.50
2018-07-08T21:09:57.421Z,20.42
2018-07-08T21:12:24.655Z,20.45
2018-07-08T21:14:51.937Z,20.50
2018-07-08T21:17:19.200Z,20.46
2018-07-08T21:19:46.475Z,20.50
2018-07-08T21:22:13.759Z,20.50
2018-07-08T21:24:41.072Z,20.47
2018-07-08T21:27:08.535Z,20.48
2018-07-08T21:29:35.816Z,20.49
2018-07-08T21:32:03.113Z,20.47
2018-07-08T21:34:30.399Z,20.43
2018-07-08T21:36:57.700Z,20.38
2018-07-08T21:39:24.972Z,20.28
2018-07-08T21:41:52.229Z,20.15
2018-07-08T21:44:19.559Z,20.04
2018-07-08T21:46:46.849Z,19.96
2018-07-08T21:49:14.088Z,19.85
2018-07-08T21:51:41.362Z,19.68
2018-07-08T21:54:08.601Z,19.55
2018-07-08T21:56:35.874Z,19.36
2018-07-08T21:59:03.139Z,19.13
2018-07-08T22:01:36.141Z,18.86
2018-07-08T22:04:03.437Z,18.78
2018-07-08T22:06:30.852Z,18.75
2018-07-08T22:08:58.218Z,18.79
2018-07-08T22:11:25.501Z,18.67
2018-07-08T22:13:52.744Z,18.62
2018-07-08T22:16:20.018Z,18.59
2018-07-08T22:18:47.294Z,18.52
2018-07-08T22:21:14.537Z,18.47
2018-07-08T22:23:41.779Z,18.46
2018-07-08T22:26:09.055Z,18.42
2018-07-08T22:28:36.261Z,18.39
2018-07-08T22:31:03.676Z,18.37
2018-07-08T22:33:30.931Z,18.34
2018-07-08T22:35:58.227Z,18.29
2018-07-08T22:38:25.470Z,18.21
2018-07-08T22:40:52.736Z,18.06
2018-07-08T22:43:19.979Z,17.99
2018-07-08T22:45:47.243Z,17.92
2018-07-08T22:48:14.478Z,17.79
2018-07-08T22:50:41.759Z,17.69
2018-07-08T22:53:09.002Z,17.48
2018-07-08T22:55:36.266Z,17.48
2018-07-08T22:58:04.162Z,17.45
2018-07-08T23:00:42.909Z,17.36
2018-07-08T23:03:53.113Z,17.18
2018-07-08T23:06:20.830Z,17.04
2018-07-08T23:08:48.916Z,17.00
2018-07-08T23:11:16.229Z,17.00
2018-07-08T23:13:43.747Z,17.05
2018-07-08T23:16:11.048Z,17.11
2018-07-08T23:18:38.283Z,17.19
2018-07-08T23:21:05.550Z,17.21
2018-07-08T23:23:32.861Z,17.17
2018-07-08T23:26:00.139Z,17.09
2018-07-08T23:28:27.390Z,16.93
2018-07-08T23:30:54.684Z,16.87
2018-07-08T23:33:21.926Z,16.91
2018-07-08T23:35:49.227Z,16.94
2018-07-08T23:38:16.477Z,16.91
2018-07-08T23:40:43.771Z,16.85
2018-07-08T23:43:11.022Z,16.72
2018-07-08T23:45:38.314Z,16.62
2018-07-08T23:48:05.614Z,16.57
2018-07-08T23:50:32.901Z,16.52
2018-07-08T23:53:00.471Z,16.53
2018-07-08T23:55:27.753Z,16.51
2018-07-08T23:57:55.076Z,16.46
